sensor_id;sensor_type;location;lat;lon;timestamp;P1;durP1;ratioP1;P2;durP2;ratioP2
10414;SDS011;5254;47.696;9.138;2022-08-01T00:00:14;5.85;;;3.97;;
10414;SDS011;5254;47.696;9.138;2022-08-01T00:02:42;6.43;;;4.38;;
10414;SDS011;5254;47.696;9.138;2022-08-01T00:05:09;6.00;;;3.60;;
10414;SDS011;5254;47.696;9.138;2022-08-01T00:07:36;6.43;;;4.55;;
10414;SDS011;5254;47.696;9.138;2022-08-01T00:10:06;5.60;;;3.83;;
10414;SDS011;5254;47.696;9.138;2022-08-01T00:12:33;6.40;;;4.65;;
10414;SDS011;5254;47.696;9.138;2022-08-01T00:14:59;7.95;;;4.00;;
10414;SDS011;5254;47.696;9.138;2022-08-01T00:17:26;7.18;;;5.05;;
10414;SDS011;5254;47.696;9.138;2022-08-01T00:19:51;5.78;;;3.80;;
10414;SDS011;5254;47.696;9.138;2022-08-01T00:22:17;7.45;;;4.80;;
10414;SDS011;5254;47.696;9.138;2022-08-01T00:24:43;4.88;;;3.63;;
10414;SDS011;5254;47.696;9.138;2022-08-01T00:27:09;7.57;;;4.90;;
10414;SDS011;5254;47.696;9.138;2022-08-01T00:29:34;7.85;;;4.40;;
10414;SDS011;5254;47.696;9.138;2022-08-01T00:32:00;8.02;;;5.13;;
10414;SDS011;5254;47.696;9.138;2022-08-01T00:34:27;6.65;;;4.25;;
10414;SDS011;5254;47.696;9.138;2022-08-01T00:36:53;7.80;;;5.25;;
10414;SDS011;5254;47.696;9.138;2022-08-01T00:39:18;5.40;;;4.10;;
10414;SDS011;5254;47.696;9.138;2022-08-01T00:41:44;8.43;;;5.18;;
10414;SDS011;5254;47.696;9.138;2022-08-01T00:44:10;6.03;;;4.50;;
10414;SDS011;5254;47.696;9.138;2022-08-01T00:46:36;5.78;;;4.88;;
10414;SDS011;5254;47.696;9.138;2022-08-01T00:49:02;6.30;;;4.05;;
10414;SDS011;5254;47.696;9.138;2022-08-01T00:51:30;7.05;;;5.28;;
10414;SDS011;5254;47.696;9.138;2022-08-01T00:53:55;5.72;;;4.28;;
10414;SDS011;5254;47.696;9.138;2022-08-01T00:56:22;7.93;;;5.45;;
10414;SDS011;5254;47.696;9.138;2022-08-01T00:58:50;6.15;;;4.45;;
10414;SDS011;5254;47.696;9.138;2022-08-01T01:01:17;8.60;;;5.82;;
10414;SDS011;5254;47.696;9.138;2022-08-01T01:03:45;7.53;;;5.00;;
10414;SDS011;5254;47.696;9.138;2022-08-01T01:11:47;7.78;;;4.32;;
10414;SDS011;5254;47.696;9.138;2022-08-01T01:17:12;7.22;;;4.60;;
10414;SDS011;5254;47.696;9.138;2022-08-01T01:19:44;8.30;;;4.55;;
10414;SDS011;5254;47.696;9.138;2022-08-01T01:25:31;6.68;;;4.85;;
10414;SDS011;5254;47.696;9.138;2022-08-01T01:33:22;10.27;;;5.50;;
10414;SDS011;5254;47.696;9.138;2022-08-01T01:35:51;6.45;;;4.68;;
10414;SDS011;5254;47.696;9.138;2022-08-01T01:38:22;6.82;;;4.82;;
10414;SDS011;5254;47.696;9.138;2022-08-01T01:40:50;7.85;;;5.60;;
10414;SDS011;5254;47.696;9.138;2022-08-01T01:43:17;6.03;;;4.40;;
10414;SDS011;5254;47.696;9.138;2022-08-01T01:48:12;6.38;;;4.28;;
10414;SDS011;5254;47.696;9.138;2022-08-01T01:50:40;8.80;;;5.93;;
10414;SDS011;5254;47.696;9.138;2022-08-01T01:53:07;5.60;;;4.40;;
10414;SDS011;5254;47.696;9.138;2022-08-01T01:55:37;7.90;;;5.85;;
10414;SDS011;5254;47.696;9.138;2022-08-01T01:58:06;6.65;;;4.53;;
10414;SDS011;5254;47.696;9.138;2022-08-01T02:00:33;7.65;;;6.00;;
10414;SDS011;5254;47.696;9.138;2022-08-01T02:03:00;5.32;;;4.50;;
10414;SDS011;5254;47.696;9.138;2022-08-01T02:05:30;8.48;;;5.80;;
10414;SDS011;5254;47.696;9.138;2022-08-01T02:07:59;9.15;;;4.68;;
10414;SDS011;5254;47.696;9.138;2022-08-01T02:10:26;5.95;;;4.65;;
10414;SDS011;5254;47.696;9.138;2022-08-01T02:12:54;7.95;;;5.88;;
10414;SDS011;5254;47.696;9.138;2022-08-01T02:15:22;6.70;;;4.13;;
10414;SDS011;5254;47.696;9.138;2022-08-01T02:17:49;7.45;;;6.13;;
10414;SDS011;5254;47.696;9.138;2022-08-01T02:20:16;5.70;;;4.47;;
10414;SDS011;5254;47.696;9.138;2022-08-01T02:23:01;7.18;;;5.97;;
10414;SDS011;5254;47.696;9.138;2022-08-01T02:28:23;9.13;;;5.60;;
10414;SDS011;5254;47.696;9.138;2022-08-01T02:30:53;6.32;;;4.43;;
10414;SDS011;5254;47.696;9.138;2022-08-01T02:33:24;6.93;;;5.53;;
10414;SDS011;5254;47.696;9.138;2022-08-01T02:35:58;5.78;;;4.20;;
10414;SDS011;5254;47.696;9.138;2022-08-01T02:38:26;6.78;;;4.45;;
10414;SDS011;5254;47.696;9.138;2022-08-01T02:40:55;7.70;;;5.80;;
10414;SDS011;5254;47.696;9.138;2022-08-01T02:43:26;6.22;;;4.38;;
10414;SDS011;5254;47.696;9.138;2022-08-01T02:45:55;7.72;;;5.75;;
10414;SDS011;5254;47.696;9.138;2022-08-01T02:48:25;7.40;;;4.70;;
10414;SDS011;5254;47.696;9.138;2022-08-01T02:50:52;8.18;;;5.45;;
10414;SDS011;5254;47.696;9.138;2022-08-01T02:53:21;4.80;;;3.90;;
10414;SDS011;5254;47.696;9.138;2022-08-01T02:55:49;7.30;;;5.10;;
10414;SDS011;5254;47.696;9.138;2022-08-01T02:58:18;5.10;;;4.05;;
10414;SDS011;5254;47.696;9.138;2022-08-01T03:00:45;7.13;;;4.95;;
10414;SDS011;5254;47.696;9.138;2022-08-01T03:03:12;5.30;;;4.18;;
10414;SDS011;5254;47.696;9.138;2022-08-01T03:05:39;7.78;;;4.95;;
10414;SDS011;5254;47.696;9.138;2022-08-01T03:08:07;7.55;;;6.30;;
10414;SDS011;5254;47.696;9.138;2022-08-01T03:10:34;8.65;;;5.28;;
10414;SDS011;5254;47.696;9.138;2022-08-01T03:13:03;8.05;;;5.05;;
10414;SDS011;5254;47.696;9.138;2022-08-01T03:15:32;6.40;;;4.30;;
10414;SDS011;5254;47.696;9.138;2022-08-01T03:18:01;5.55;;;4.15;;
10414;SDS011;5254;47.696;9.138;2022-08-01T03:20:28;8.02;;;5.38;;
10414;SDS011;5254;47.696;9.138;2022-08-01T03:22:57;5.97;;;4.25;;
10414;SDS011;5254;47.696;9.138;2022-08-01T03:25:26;6.00;;;4.00;;
10414;SDS011;5254;47.696;9.138;2022-08-01T03:27:54;6.55;;;4.88;;
10414;SDS011;5254;47.696;9.138;2022-08-01T03:30:25;5.82;;;3.83;;
10414;SDS011;5254;47.696;9.138;2022-08-01T03:32:52;5.43;;;4.03;;
10414;SDS011;5254;47.696;9.138;2022-08-01T03:35:18;7.47;;;4.55;;
10414;SDS011;5254;47.696;9.138;2022-08-01T03:37:47;5.30;;;4.07;;
10414;SDS011;5254;47.696;9.138;2022-08-01T03:40:20;7.82;;;5.60;;
10414;SDS011;5254;47.696;9.138;2022-08-01T03:42:48;6.72;;;4.47;;
10414;SDS011;5254;47.696;9.138;2022-08-01T03:45:22;7.43;;;5.10;;
10414;SDS011;5254;47.696;9.138;2022-08-01T03:48:00;5.35;;;4.30;;
10414;SDS011;5254;47.696;9.138;2022-08-01T03:50:28;6.70;;;4.50;;
10414;SDS011;5254;47.696;9.138;2022-08-01T03:52:59;8.15;;;5.40;;
10414;SDS011;5254;47.696;9.138;2022-08-01T03:55:26;6.40;;;4.47;;
10414;SDS011;5254;47.696;9.138;2022-08-01T03:57:53;8.95;;;5.60;;
10414;SDS011;5254;47.696;9.138;2022-08-01T04:00:19;7.38;;;4.53;;
10414;SDS011;5254;47.696;9.138;2022-08-01T04:02:46;7.45;;;4.97;;
10414;SDS011;5254;47.696;9.138;2022-08-01T04:05:13;5.53;;;3.72;;
10414;SDS011;5254;47.696;9.138;2022-08-01T04:07:39;9.75;;;5.10;;
10414;SDS011;5254;47.696;9.138;2022-08-01T04:10:07;7.82;;;4.18;;
10414;SDS011;5254;47.696;9.138;2022-08-01T04:12:33;6.68;;;4.30;;
10414;SDS011;5254;47.696;9.138;2022-08-01T04:14:59;6.15;;;3.40;;
10414;SDS011;5254;47.696;9.138;2022-08-01T04:17:25;6.35;;;4.28;;
10414;SDS011;5254;47.696;9.138;2022-08-01T04:19:51;5.63;;;3.67;;
10414;SDS011;5254;47.696;9.138;2022-08-01T04:22:16;6.35;;;3.80;;
10414;SDS011;5254;47.696;9.138;2022-08-01T04:24:44;6.03;;;3.70;;
10414;SDS011;5254;47.696;9.138;2022-08-01T04:27:19;6.15;;;4.50;;
10414;SDS011;5254;47.696;9.138;2022-08-01T04:29:53;7.60;;;3.60;;
10414;SDS011;5254;47.696;9.138;2022-08-01T04:32:21;6.75;;;3.55;;
10414;SDS011;5254;47.696;9.138;2022-08-01T04:34:48;7.65;;;4.85;;
10414;SDS011;5254;47.696;9.138;2022-08-01T04:37:15;5.47;;;3.60;;
10414;SDS011;5254;47.696;9.138;2022-08-01T04:39:42;6.05;;;3.90;;
10414;SDS011;5254;47.696;9.138;2022-08-01T04:42:09;8.02;;;4.85;;
10414;SDS011;5254;47.696;9.138;2022-08-01T04:44:36;5.88;;;3.83;;
10414;SDS011;5254;47.696;9.138;2022-08-01T04:47:03;8.98;;;5.07;;
10414;SDS011;5254;47.696;9.138;2022-08-01T04:49:34;6.60;;;3.85;;
10414;SDS011;5254;47.696;9.138;2022-08-01T04:52:00;6.53;;;4.30;;
10414;SDS011;5254;47.696;9.138;2022-08-01T04:54:26;6.90;;;3.80;;
10414;SDS011;5254;47.696;9.138;2022-08-01T04:56:53;5.88;;;3.50;;
10414;SDS011;5254;47.696;9.138;2022-08-01T04:59:25;7.63;;;4.75;;
10414;SDS011;5254;47.696;9.138;2022-08-01T05:04:37;7.43;;;4.63;;
10414;SDS011;5254;47.696;9.138;2022-08-01T05:07:03;6.35;;;3.80;;
10414;SDS011;5254;47.696;9.138;2022-08-01T05:09:30;6.60;;;4.57;;
10414;SDS011;5254;47.696;9.138;2022-08-01T05:11:56;7.05;;;3.85;;
10414;SDS011;5254;47.696;9.138;2022-08-01T05:14:24;10.88;;;5.45;;
10414;SDS011;5254;47.696;9.138;2022-08-01T05:16:50;7.57;;;3.65;;
10414;SDS011;5254;47.696;9.138;2022-08-01T05:19:16;9.63;;;4.30;;
10414;SDS011;5254;47.696;9.138;2022-08-01T05:21:42;6.95;;;4.72;;
10414;SDS011;5254;47.696;9.138;2022-08-01T05:24:08;5.82;;;3.90;;
10414;SDS011;5254;47.696;9.138;2022-08-01T05:26:33;8.05;;;4.90;;
10414;SDS011;5254;47.696;9.138;2022-08-01T05:28:59;13.00;;;4.60;;
10414;SDS011;5254;47.696;9.138;2022-08-01T05:31:25;7.22;;;4.70;;
10414;SDS011;5254;47.696;9.138;2022-08-01T05:33:51;5.05;;;3.70;;
10414;SDS011;5254;47.696;9.138;2022-08-01T05:36:16;7.28;;;4.55;;
10414;SDS011;5254;47.696;9.138;2022-08-01T05:38:42;7.63;;;4.13;;
10414;SDS011;5254;47.696;9.138;2022-08-01T05:41:08;7.80;;;4.75;;
10414;SDS011;5254;47.696;9.138;2022-08-01T05:43:35;7.43;;;4.50;;
10414;SDS011;5254;47.696;9.138;2022-08-01T05:46:00;7.15;;;5.10;;
10414;SDS011;5254;47.696;9.138;2022-08-01T05:48:26;6.15;;;3.90;;
10414;SDS011;5254;47.696;9.138;2022-08-01T05:50:52;6.85;;;5.30;;
10414;SDS011;5254;47.696;9.138;2022-08-01T05:53:18;6.45;;;3.90;;
10414;SDS011;5254;47.696;9.138;2022-08-01T05:55:44;7.03;;;5.20;;
10414;SDS011;5254;47.696;9.138;2022-08-01T05:58:09;7.72;;;4.65;;
10414;SDS011;5254;47.696;9.138;2022-08-01T06:00:35;8.93;;;5.70;;
10414;SDS011;5254;47.696;9.138;2022-08-01T06:03:01;7.90;;;5.00;;
10414;SDS011;5254;47.696;9.138;2022-08-01T06:05:26;9.18;;;5.50;;
10414;SDS011;5254;47.696;9.138;2022-08-01T06:07:52;5.88;;;4.15;;
10414;SDS011;5254;47.696;9.138;2022-08-01T06:10:18;6.78;;;5.07;;
10414;SDS011;5254;47.696;9.138;2022-08-01T06:12:44;8.25;;;5.05;;
10414;SDS011;5254;47.696;9.138;2022-08-01T06:15:10;10.23;;;4.53;;
10414;SDS011;5254;47.696;9.138;2022-08-01T06:17:36;10.27;;;5.15;;
10414;SDS011;5254;47.696;9.138;2022-08-01T06:20:02;7.53;;;3.88;;
10414;SDS011;5254;47.696;9.138;2022-08-01T06:22:29;8.73;;;5.00;;
10414;SDS011;5254;47.696;9.138;2022-08-01T06:24:54;5.63;;;4.18;;
10414;SDS011;5254;47.696;9.138;2022-08-01T06:27:20;7.55;;;4.85;;
10414;SDS011;5254;47.696;9.138;2022-08-01T06:29:46;5.70;;;3.80;;
10414;SDS011;5254;47.696;9.138;2022-08-01T06:32:11;7.32;;;4.70;;
10414;SDS011;5254;47.696;9.138;2022-08-01T06:34:37;6.13;;;3.78;;
10414;SDS011;5254;47.696;9.138;2022-08-01T06:37:03;7.53;;;4.30;;
10414;SDS011;5254;47.696;9.138;2022-08-01T06:39:28;6.80;;;4.00;;
10414;SDS011;5254;47.696;9.138;2022-08-01T06:41:54;6.07;;;3.55;;
10414;SDS011;5254;47.696;9.138;2022-08-01T06:44:20;7.65;;;4.50;;
10414;SDS011;5254;47.696;9.138;2022-08-01T06:46:45;4.97;;;3.42;;
10414;SDS011;5254;47.696;9.138;2022-08-01T06:49:11;5.32;;;3.83;;
10414;SDS011;5254;47.696;9.138;2022-08-01T06:51:36;5.40;;;3.63;;
10414;SDS011;5254;47.696;9.138;2022-08-01T06:54:02;7.18;;;4.28;;
10414;SDS011;5254;47.696;9.138;2022-08-01T06:56:28;6.32;;;3.80;;
10414;SDS011;5254;47.696;9.138;2022-08-01T06:58:54;5.55;;;4.20;;
10414;SDS011;5254;47.696;9.138;2022-08-01T07:01:25;5.57;;;3.55;;
10414;SDS011;5254;47.696;9.138;2022-08-01T07:03:54;5.30;;;4.13;;
10414;SDS011;5254;47.696;9.138;2022-08-01T07:06:20;5.75;;;4.00;;
10414;SDS011;5254;47.696;9.138;2022-08-01T07:08:49;6.25;;;4.05;;
10414;SDS011;5254;47.696;9.138;2022-08-01T07:11:15;6.97;;;3.78;;
10414;SDS011;5254;47.696;9.138;2022-08-01T07:13:42;7.93;;;4.60;;
10414;SDS011;5254;47.696;9.138;2022-08-01T07:16:07;7.13;;;3.92;;
10414;SDS011;5254;47.696;9.138;2022-08-01T07:18:33;6.82;;;4.00;;
10414;SDS011;5254;47.696;9.138;2022-08-01T07:20:59;5.15;;;3.38;;
10414;SDS011;5254;47.696;9.138;2022-08-01T07:23:25;5.75;;;4.22;;
10414;SDS011;5254;47.696;9.138;2022-08-01T07:25:50;6.00;;;3.55;;
10414;SDS011;5254;47.696;9.138;2022-08-01T07:28:17;6.22;;;4.18;;
10414;SDS011;5254;47.696;9.138;2022-08-01T07:30:43;7.43;;;4.22;;
10414;SDS011;5254;47.696;9.138;2022-08-01T07:33:09;5.47;;;3.78;;
10414;SDS011;5254;47.696;9.138;2022-08-01T07:35:35;7.38;;;4.70;;
10414;SDS011;5254;47.696;9.138;2022-08-01T07:38:03;7.57;;;4.45;;
10414;SDS011;5254;47.696;9.138;2022-08-01T07:40:30;6.85;;;4.28;;
10414;SDS011;5254;47.696;9.138;2022-08-01T07:42:55;6.50;;;4.63;;
10414;SDS011;5254;47.696;9.138;2022-08-01T07:45:21;5.82;;;3.50;;
10414;SDS011;5254;47.696;9.138;2022-08-01T07:47:47;7.78;;;4.63;;
10414;SDS011;5254;47.696;9.138;2022-08-01T07:50:14;6.85;;;4.40;;
10414;SDS011;5254;47.696;9.138;2022-08-01T07:52:41;5.32;;;3.63;;
10414;SDS011;5254;47.696;9.138;2022-08-01T07:55:08;6.78;;;4.28;;
10414;SDS011;5254;47.696;9.138;2022-08-01T07:57:34;6.10;;;3.92;;
10414;SDS011;5254;47.696;9.138;2022-08-01T08:00:00;6.22;;;4.47;;
10414;SDS011;5254;47.696;9.138;2022-08-01T08:02:28;5.80;;;4.07;;
10414;SDS011;5254;47.696;9.138;2022-08-01T08:04:54;5.53;;;3.70;;
10414;SDS011;5254;47.696;9.138;2022-08-01T08:07:20;6.22;;;3.80;;
10414;SDS011;5254;47.696;9.138;2022-08-01T08:09:45;5.88;;;3.70;;
10414;SDS011;5254;47.696;9.138;2022-08-01T08:12:11;5.68;;;4.18;;
10414;SDS011;5254;47.696;9.138;2022-08-01T08:14:37;6.38;;;4.28;;
10414;SDS011;5254;47.696;9.138;2022-08-01T08:17:03;6.10;;;3.90;;
10414;SDS011;5254;47.696;9.138;2022-08-01T08:19:29;6.38;;;4.40;;
10414;SDS011;5254;47.696;9.138;2022-08-01T08:21:58;7.05;;;4.47;;
10414;SDS011;5254;47.696;9.138;2022-08-01T08:24:25;6.93;;;4.00;;
10414;SDS011;5254;47.696;9.138;2022-08-01T08:26:56;5.13;;;3.72;;
10414;SDS011;5254;47.696;9.138;2022-08-01T08:29:23;6.38;;;4.43;;
10414;SDS011;5254;47.696;9.138;2022-08-01T08:31:51;6.18;;;4.43;;
10414;SDS011;5254;47.696;9.138;2022-08-01T08:34:17;6.00;;;4.05;;
10414;SDS011;5254;47.696;9.138;2022-08-01T08:36:43;4.88;;;3.55;;
10414;SDS011;5254;47.696;9.138;2022-08-01T08:39:09;7.32;;;3.90;;
10414;SDS011;5254;47.696;9.138;2022-08-01T08:41:35;6.13;;;4.25;;
10414;SDS011;5254;47.696;9.138;2022-08-01T08:44:02;6.22;;;3.90;;
10414;SDS011;5254;47.696;9.138;2022-08-01T08:46:29;5.50;;;4.05;;
10414;SDS011;5254;47.696;9.138;2022-08-01T08:49:00;6.22;;;4.35;;
10414;SDS011;5254;47.696;9.138;2022-08-01T08:51:27;6.35;;;4.40;;
10414;SDS011;5254;47.696;9.138;2022-08-01T08:53:55;5.70;;;3.85;;
10414;SDS011;5254;47.696;9.138;2022-08-01T08:56:23;5.38;;;3.78;;
10414;SDS011;5254;47.696;9.138;2022-08-01T08:58:50;5.65;;;3.25;;
10414;SDS011;5254;47.696;9.138;2022-08-01T09:01:16;5.35;;;3.17;;
10414;SDS011;5254;47.696;9.138;2022-08-01T09:03:42;5.35;;;3.40;;
10414;SDS011;5254;47.696;9.138;2022-08-01T09:06:09;6.35;;;4.03;;
10414;SDS011;5254;47.696;9.138;2022-08-01T09:08:36;4.88;;;3.50;;
10414;SDS011;5254;47.696;9.138;2022-08-01T09:11:02;6.35;;;3.90;;
10414;SDS011;5254;47.696;9.138;2022-08-01T09:13:28;7.00;;;4.00;;
10414;SDS011;5254;47.696;9.138;2022-08-01T09:15:55;5.70;;;4.05;;
10414;SDS011;5254;47.696;9.138;2022-08-01T09:18:39;5.40;;;3.70;;
10414;SDS011;5254;47.696;9.138;2022-08-01T09:23:40;5.97;;;3.85;;
10414;SDS011;5254;47.696;9.138;2022-08-01T09:26:14;6.00;;;3.80;;
10414;SDS011;5254;47.696;9.138;2022-08-01T09:28:43;5.97;;;3.85;;
10414;SDS011;5254;47.696;9.138;2022-08-01T09:31:16;5.93;;;4.00;;
10414;SDS011;5254;47.696;9.138;2022-08-01T09:33:50;5.40;;;3.60;;
10414;SDS011;5254;47.696;9.138;2022-08-01T09:36:16;7.05;;;3.90;;
10414;SDS011;5254;47.696;9.138;2022-08-01T09:38:42;6.65;;;3.95;;
10414;SDS011;5254;47.696;9.138;2022-08-01T09:41:08;6.68;;;4.05;;
10414;SDS011;5254;47.696;9.138;2022-08-01T09:43:36;6.20;;;4.18;;
10414;SDS011;5254;47.696;9.138;2022-08-01T09:46:09;5.35;;;3.33;;
10414;SDS011;5254;47.696;9.138;2022-08-01T09:48:38;6.53;;;3.90;;
10414;SDS011;5254;47.696;9.138;2022-08-01T09:51:27;6.38;;;3.90;;
10414;SDS011;5254;47.696;9.138;2022-08-01T09:53:54;5.30;;;3.65;;
10414;SDS011;5254;47.696;9.138;2022-08-01T09:56:20;8.30;;;4.22;;
10414;SDS011;5254;47.696;9.138;2022-08-01T09:59:05;5.15;;;3.20;;
10414;SDS011;5254;47.696;9.138;2022-08-01T10:01:45;4.78;;;3.60;;
10414;SDS011;5254;47.696;9.138;2022-08-01T10:04:13;5.35;;;4.03;;
10414;SDS011;5254;47.696;9.138;2022-08-01T10:06:40;5.25;;;3.65;;
10414;SDS011;5254;47.696;9.138;2022-08-01T10:09:09;5.57;;;3.65;;
10414;SDS011;5254;47.696;9.138;2022-08-01T10:11:36;5.90;;;3.85;;
10414;SDS011;5254;47.696;9.138;2022-08-01T10:14:05;5.38;;;3.78;;
10414;SDS011;5254;47.696;9.138;2022-08-01T10:16:32;4.68;;;3.45;;
10414;SDS011;5254;47.696;9.138;2022-08-01T10:18:59;6.47;;;3.75;;
10414;SDS011;5254;47.696;9.138;2022-08-01T10:21:27;5.82;;;3.55;;
10414;SDS011;5254;47.696;9.138;2022-08-01T10:23:54;5.55;;;3.85;;
10414;SDS011;5254;47.696;9.138;2022-08-01T10:26:21;5.72;;;3.55;;
10414;SDS011;5254;47.696;9.138;2022-08-01T10:28:50;5.38;;;3.45;;
10414;SDS011;5254;47.696;9.138;2022-08-01T10:31:17;6.05;;;3.45;;
10414;SDS011;5254;47.696;9.138;2022-08-01T10:33:44;5.22;;;3.38;;
10414;SDS011;5254;47.696;9.138;2022-08-01T10:36:10;4.38;;;3.30;;
10414;SDS011;5254;47.696;9.138;2022-08-01T10:38:36;4.82;;;3.22;;
10414;SDS011;5254;47.696;9.138;2022-08-01T10:41:03;4.88;;;3.30;;
10414;SDS011;5254;47.696;9.138;2022-08-01T10:43:29;4.80;;;3.35;;
10414;SDS011;5254;47.696;9.138;2022-08-01T10:45:55;6.55;;;3.88;;
10414;SDS011;5254;47.696;9.138;2022-08-01T10:48:32;7.50;;;3.83;;
10414;SDS011;5254;47.696;9.138;2022-08-01T10:51:18;6.38;;;3.70;;
10414;SDS011;5254;47.696;9.138;2022-08-01T10:53:46;4.45;;;2.92;;
10414;SDS011;5254;47.696;9.138;2022-08-01T10:56:16;4.80;;;3.17;;
10414;SDS011;5254;47.696;9.138;2022-08-01T10:58:42;5.38;;;3.47;;
10414;SDS011;5254;47.696;9.138;2022-08-01T11:03:44;5.60;;;3.50;;
10414;SDS011;5254;47.696;9.138;2022-08-01T11:06:23;4.60;;;3.08;;
10414;SDS011;5254;47.696;9.138;2022-08-01T11:20:16;4.95;;;3.40;;
10414;SDS011;5254;47.696;9.138;2022-08-01T11:30:43;4.03;;;2.85;;
10414;SDS011;5254;47.696;9.138;2022-08-01T11:33:10;5.75;;;3.25;;
10414;SDS011;5254;47.696;9.138;2022-08-01T11:35:36;4.43;;;2.80;;
10414;SDS011;5254;47.696;9.138;2022-08-01T11:40:48;6.90;;;3.35;;
10414;SDS011;5254;47.696;9.138;2022-08-01T11:43:58;7.20;;;2.80;;
10414;SDS011;5254;47.696;9.138;2022-08-01T11:46:46;3.88;;;2.70;;
10414;SDS011;5254;47.696;9.138;2022-08-01T11:51:58;4.35;;;3.10;;
10414;SDS011;5254;47.696;9.138;2022-08-01T11:57:22;5.57;;;2.97;;
10414;SDS011;5254;47.696;9.138;2022-08-01T11:59:50;7.20;;;3.30;;
10414;SDS011;5254;47.696;9.138;2022-08-01T12:04:52;4.78;;;2.92;;
10414;SDS011;5254;47.696;9.138;2022-08-01T12:07:18;3.40;;;2.55;;
10414;SDS011;5254;47.696;9.138;2022-08-01T12:09:45;3.88;;;2.53;;
10414;SDS011;5254;47.696;9.138;2022-08-01T12:12:14;5.45;;;2.80;;
10414;SDS011;5254;47.696;9.138;2022-08-01T12:14:52;4.32;;;2.70;;
10414;SDS011;5254;47.696;9.138;2022-08-01T12:17:29;5.15;;;2.60;;
10414;SDS011;5254;47.696;9.138;2022-08-01T12:19:57;3.25;;;2.40;;
10414;SDS011;5254;47.696;9.138;2022-08-01T12:22:23;4.07;;;2.53;;
10414;SDS011;5254;47.696;9.138;2022-08-01T12:24:50;3.25;;;2.20;;
10414;SDS011;5254;47.696;9.138;2022-08-01T12:27:26;3.92;;;2.45;;
10414;SDS011;5254;47.696;9.138;2022-08-01T12:29:53;4.90;;;2.33;;
10414;SDS011;5254;47.696;9.138;2022-08-01T12:32:29;3.83;;;2.58;;
10414;SDS011;5254;47.696;9.138;2022-08-01T12:34:57;3.28;;;2.35;;
10414;SDS011;5254;47.696;9.138;2022-08-01T12:37:49;4.30;;;2.35;;
10414;SDS011;5254;47.696;9.138;2022-08-01T12:40:19;3.60;;;2.40;;
10414;SDS011;5254;47.696;9.138;2022-08-01T12:43:07;3.67;;;2.53;;
10414;SDS011;5254;47.696;9.138;2022-08-01T12:45:34;3.95;;;2.40;;
10414;SDS011;5254;47.696;9.138;2022-08-01T12:48:07;3.72;;;2.30;;
10414;SDS011;5254;47.696;9.138;2022-08-01T12:50:36;5.40;;;2.28;;
10414;SDS011;5254;47.696;9.138;2022-08-01T12:53:04;3.40;;;2.20;;
10414;SDS011;5254;47.696;9.138;2022-08-01T12:55:30;3.20;;;2.10;;
10414;SDS011;5254;47.696;9.138;2022-08-01T12:58:14;3.15;;;2.10;;
10414;SDS011;5254;47.696;9.138;2022-08-01T13:00:42;3.42;;;2.38;;
10414;SDS011;5254;47.696;9.138;2022-08-01T13:03:11;4.93;;;2.40;;
10414;SDS011;5254;47.696;9.138;2022-08-01T13:05:42;2.85;;;1.70;;
10414;SDS011;5254;47.696;9.138;2022-08-01T13:08:16;3.55;;;2.30;;
10414;SDS011;5254;47.696;9.138;2022-08-01T13:10:44;4.15;;;2.20;;
10414;SDS011;5254;47.696;9.138;2022-08-01T13:13:10;2.72;;;1.77;;
10414;SDS011;5254;47.696;9.138;2022-08-01T13:15:38;4.22;;;2.22;;
10414;SDS011;5254;47.696;9.138;2022-08-01T13:24:03;2.97;;;2.10;;
10414;SDS011;5254;47.696;9.138;2022-08-01T13:29:09;4.07;;;2.20;;
10414;SDS011;5254;47.696;9.138;2022-08-01T13:31:37;4.03;;;2.13;;
10414;SDS011;5254;47.696;9.138;2022-08-01T13:34:04;3.90;;;2.13;;
10414;SDS011;5254;47.696;9.138;2022-08-01T13:36:30;3.78;;;2.13;;
10414;SDS011;5254;47.696;9.138;2022-08-01T13:38:56;3.97;;;2.50;;
10414;SDS011;5254;47.696;9.138;2022-08-01T13:41:41;4.45;;;2.45;;
10414;SDS011;5254;47.696;9.138;2022-08-01T13:44:07;4.22;;;1.90;;
10414;SDS011;5254;47.696;9.138;2022-08-01T13:46:34;3.25;;;2.20;;
10414;SDS011;5254;47.696;9.138;2022-08-01T13:49:00;2.78;;;1.90;;
10414;SDS011;5254;47.696;9.138;2022-08-01T13:51:27;3.90;;;2.30;;
10414;SDS011;5254;47.696;9.138;2022-08-01T13:53:52;2.60;;;2.03;;
10414;SDS011;5254;47.696;9.138;2022-08-01T13:56:18;4.18;;;2.50;;
10414;SDS011;5254;47.696;9.138;2022-08-01T13:58:45;2.80;;;1.80;;
10414;SDS011;5254;47.696;9.138;2022-08-01T14:01:11;5.13;;;2.00;;
10414;SDS011;5254;47.696;9.138;2022-08-01T14:03:36;2.95;;;1.92;;
10414;SDS011;5254;47.696;9.138;2022-08-01T14:06:02;2.75;;;1.75;;
10414;SDS011;5254;47.696;9.138;2022-08-01T14:08:28;2.72;;;1.92;;
10414;SDS011;5254;47.696;9.138;2022-08-01T14:10:54;2.33;;;1.60;;
10414;SDS011;5254;47.696;9.138;2022-08-01T14:13:22;3.78;;;1.95;;
10414;SDS011;5254;47.696;9.138;2022-08-01T14:15:48;4.40;;;1.67;;
10414;SDS011;5254;47.696;9.138;2022-08-01T14:18:15;3.08;;;1.90;;
10414;SDS011;5254;47.696;9.138;2022-08-01T14:20:41;3.38;;;1.65;;
10414;SDS011;5254;47.696;9.138;2022-08-01T14:23:07;3.20;;;1.80;;
10414;SDS011;5254;47.696;9.138;2022-08-01T14:25:33;1.67;;;1.40;;
10414;SDS011;5254;47.696;9.138;2022-08-01T14:27:59;2.75;;;1.80;;
10414;SDS011;5254;47.696;9.138;2022-08-01T14:30:25;3.47;;;1.83;;
10414;SDS011;5254;47.696;9.138;2022-08-01T14:32:51;2.88;;;1.65;;
10414;SDS011;5254;47.696;9.138;2022-08-01T14:35:17;3.13;;;1.80;;
10414;SDS011;5254;47.696;9.138;2022-08-01T14:37:42;3.83;;;1.77;;
10414;SDS011;5254;47.696;9.138;2022-08-01T14:40:08;3.47;;;1.50;;
10414;SDS011;5254;47.696;9.138;2022-08-01T14:42:35;3.60;;;1.70;;
10414;SDS011;5254;47.696;9.138;2022-08-01T14:45:01;2.72;;;1.27;;
10414;SDS011;5254;47.696;9.138;2022-08-01T14:47:29;2.38;;;1.58;;
10414;SDS011;5254;47.696;9.138;2022-08-01T14:49:54;2.38;;;1.50;;
10414;SDS011;5254;47.696;9.138;2022-08-01T14:52:20;3.28;;;1.67;;
10414;SDS011;5254;47.696;9.138;2022-08-01T14:54:46;2.20;;;1.40;;
10414;SDS011;5254;47.696;9.138;2022-08-01T14:57:12;2.67;;;1.33;;
10414;SDS011;5254;47.696;9.138;2022-08-01T14:59:38;3.33;;;1.58;;
10414;SDS011;5254;47.696;9.138;2022-08-01T15:02:04;2.75;;;1.40;;
10414;SDS011;5254;47.696;9.138;2022-08-01T15:04:29;1.58;;;1.13;;
10414;SDS011;5254;47.696;9.138;2022-08-01T15:06:55;1.90;;;1.20;;
10414;SDS011;5254;47.696;9.138;2022-08-01T15:09:21;1.88;;;1.20;;
10414;SDS011;5254;47.696;9.138;2022-08-01T15:11:48;2.65;;;1.27;;
10414;SDS011;5254;47.696;9.138;2022-08-01T15:14:14;2.20;;;1.35;;
10414;SDS011;5254;47.696;9.138;2022-08-01T15:16:58;2.58;;;1.38;;
10414;SDS011;5254;47.696;9.138;2022-08-01T15:19:23;3.42;;;1.33;;
10414;SDS011;5254;47.696;9.138;2022-08-01T15:21:49;4.20;;;1.52;;
10414;SDS011;5254;47.696;9.138;2022-08-01T15:24:15;1.70;;;1.10;;
10414;SDS011;5254;47.696;9.138;2022-08-01T15:26:40;1.58;;;1.20;;
10414;SDS011;5254;47.696;9.138;2022-08-01T15:29:06;2.67;;;1.45;;
10414;SDS011;5254;47.696;9.138;2022-08-01T15:31:31;2.55;;;1.50;;
10414;SDS011;5254;47.696;9.138;2022-08-01T15:33:57;2.72;;;1.45;;
10414;SDS011;5254;47.696;9.138;2022-08-01T15:36:23;5.28;;;2.47;;
10414;SDS011;5254;47.696;9.138;2022-08-01T15:38:48;4.40;;;2.45;;
10414;SDS011;5254;47.696;9.138;2022-08-01T15:41:14;4.20;;;2.30;;
10414;SDS011;5254;47.696;9.138;2022-08-01T15:43:40;4.22;;;1.90;;
10414;SDS011;5254;47.696;9.138;2022-08-01T15:46:05;3.72;;;2.30;;
10414;SDS011;5254;47.696;9.138;2022-08-01T15:48:31;2.20;;;1.83;;
10414;SDS011;5254;47.696;9.138;2022-08-01T15:50:57;3.85;;;2.40;;
10414;SDS011;5254;47.696;9.138;2022-08-01T15:53:22;3.40;;;2.50;;
10414;SDS011;5254;47.696;9.138;2022-08-01T15:55:48;4.93;;;2.97;;
10414;SDS011;5254;47.696;9.138;2022-08-01T15:58:14;3.03;;;2.10;;
10414;SDS011;5254;47.696;9.138;2022-08-01T16:00:39;4.25;;;2.80;;
10414;SDS011;5254;47.696;9.138;2022-08-01T16:03:08;4.72;;;2.72;;
10414;SDS011;5254;47.696;9.138;2022-08-01T16:05:34;4.00;;;2.60;;
10414;SDS011;5254;47.696;9.138;2022-08-01T16:08:00;4.15;;;2.80;;
10414;SDS011;5254;47.696;9.138;2022-08-01T16:10:28;4.88;;;2.58;;
10414;SDS011;5254;47.696;9.138;2022-08-01T16:12:54;5.53;;;3.10;;